sensor_id;sensor_type;location;lat;lon;timestamp;temperature;humidity
35635;DHT22;21757;43.610;1.440;2022-11-15T00:00:28;13.50;99.90
35635;DHT22;21757;43.610;1.440;2022-11-15T00:02:55;13.40;99.90
35635;DHT22;21757;43.610;1.440;2022-11-15T00:05:21;13.40;99.90
35635;DHT22;21757;43.610;1.440;2022-11-15T00:07:47;13.30;99.90
35635;DHT22;21757;43.610;1.440;2022-11-15T00:10:13;13.30;99.90
35635;DHT22;21757;43.610;1.440;2022-11-15T00:12:39;13.30;99.90
35635;DHT22;21757;43.610;1.440;2022-11-15T00:15:05;13.20;99.90
35635;DHT22;21757;43.610;1.440;2022-11-15T00:17:30;13.20;99.90
35635;DHT22;21757;43.610;1.440;2022-11-15T00:19:56;13.20;99.90
35635;DHT22;21757;43.610;1.440;2022-11-15T00:22:22;13.30;99.90
35635;DHT22;21757;43.610;1.440;2022-11-15T00:24:48;13.40;99.90
35635;DHT22;21757;43.610;1.440;2022-11-15T00:27:13;13.40;99.90
35635;DHT22;21757;43.610;1.440;2022-11-15T00:29:39;13.40;99.90
35635;DHT22;21757;43.610;1.440;2022-11-15T00:32:09;13.40;99.90
35635;DHT22;21757;43.610;1.440;2022-11-15T00:34:35;13.50;99.90
35635;DHT22;21757;43.610;1.440;2022-11-15T00:37:01;13.50;99.90
35635;DHT22;21757;43.610;1.440;2022-11-15T00:39:27;13.50;99.90
35635;DHT22;21757;43.610;1.440;2022-11-15T00:41:52;13.50;99.90
35635;DHT22;21757;43.610;1.440;2022-11-15T00:44:18;13.50;99.90
35635;DHT22;21757;43.610;1.440;2022-11-15T00:46:44;13.40;99.90
35635;DHT22;21757;43.610;1.440;2022-11-15T00:49:10;13.40;99.90
35635;DHT22;21757;43.610;1.440;2022-11-15T00:51:35;13.40;99.90
35635;DHT22;21757;43.610;1.440;2022-11-15T00:54:01;13.40;99.90
35635;DHT22;21757;43.610;1.440;2022-11-15T00:56:26;13.40;99.90
35635;DHT22;21757;43.610;1.440;2022-11-15T00:58:53;13.30;99.90
35635;DHT22;21757;43.610;1.440;2022-11-15T01:01:18;13.30;99.90
35635;DHT22;21757;43.610;1.440;2022-11-15T01:03:44;13.30;99.90
35635;DHT22;21757;43.610;1.440;2022-11-15T01:06:10;13.30;99.90
35635;DHT22;21757;43.610;1.440;2022-11-15T01:08:38;13.30;99.90
35635;DHT22;21757;43.610;1.440;2022-11-15T01:11:10;13.30;99.90
35635;DHT22;21757;43.610;1.440;2022-11-15T01:13:37;13.30;99.90
35635;DHT22;21757;43.610;1.440;2022-11-15T01:16:12;13.30;99.90
35635;DHT22;21757;43.610;1.440;2022-11-15T01:18:39;13.30;99.90
35635;DHT22;21757;43.610;1.440;2022-11-15T01:21:07;13.40;99.90
35635;DHT22;21757;43.610;1.440;2022-11-15T01:23:33;13.40;99.90
35635;DHT22;21757;43.610;1.440;2022-11-15T01:26:04;13.40;99.90
35635;DHT22;21757;43.610;1.440;2022-11-15T01:28:31;13.40;99.90
35635;DHT22;21757;43.610;1.440;2022-11-15T01:30:59;13.40;99.90
35635;DHT22;21757;43.610;1.440;2022-11-15T01:33:25;13.40;99.90
35635;DHT22;21757;43.610;1.440;2022-11-15T01:35:50;13.40;99.90
35635;DHT22;21757;43.610;1.440;2022-11-15T01:38:16;13.40;99.90
35635;DHT22;21757;43.610;1.440;2022-11-15T01:40:42;13.40;99.90
35635;DHT22;21757;43.610;1.440;2022-11-15T01:43:32;13.40;99.90
35635;DHT22;21757;43.610;1.440;2022-11-15T01:48:34;13.40;99.90
35635;DHT22;21757;43.610;1.440;2022-11-15T01:51:04;13.40;99.90
35635;DHT22;21757;43.610;1.440;2022-11-15T01:53:34;13.40;99.90
35635;DHT22;21757;43.610;1.440;2022-11-15T01:56:05;13.30;99.90
35635;DHT22;21757;43.610;1.440;2022-11-15T01:58:31;13.30;99.90
35635;DHT22;21757;43.610;1.440;2022-11-15T02:00:57;13.30;99.90
35635;DHT22;21757;43.610;1.440;2022-11-15T02:03:30;13.30;99.90
35635;DHT22;21757;43.610;1.440;2022-11-15T02:05:58;13.20;99.90
35635;DHT22;21757;43.610;1.440;2022-11-15T02:08:23;13.30;99.90
35635;DHT22;21757;43.610;1.440;2022-11-15T02:10:49;13.20;99.90
35635;DHT22;21757;43.610;1.440;2022-11-15T02:13:15;13.20;99.90
35635;DHT22;21757;43.610;1.440;2022-11-15T02:18:44;13.20;99.90
35635;DHT22;21757;43.610;1.440;2022-11-15T02:23:57;13.30;99.90
35635;DHT22;21757;43.610;1.440;2022-11-15T02:29:04;13.30;99.90
35635;DHT22;21757;43.610;1.440;2022-11-15T02:31:55;13.30;99.90
35635;DHT22;21757;43.610;1.440;2022-11-15T02:34:42;13.30;99.90
35635;DHT22;21757;43.610;1.440;2022-11-15T02:37:34;13.30;99.90
35635;DHT22;21757;43.610;1.440;2022-11-15T02:42:52;13.30;99.90
35635;DHT22;21757;43.610;1.440;2022-11-15T02:45:44;13.30;99.90
35635;DHT22;21757;43.610;1.440;2022-11-15T02:48:12;13.30;99.90
35635;DHT22;21757;43.610;1.440;2022-11-15T02:50:38;13.30;99.90
35635;DHT22;21757;43.610;1.440;2022-11-15T02:53:04;13.40;99.90
35635;DHT22;21757;43.610;1.440;2022-11-15T02:55:38;13.40;99.90
35635;DHT22;21757;43.610;1.440;2022-11-15T03:00:50;13.40;99.90
35635;DHT22;21757;43.610;1.440;2022-11-15T03:03:46;13.30;99.90
35635;DHT22;21757;43.610;1.440;2022-11-15T03:06:33;13.40;99.90
35635;DHT22;21757;43.610;1.440;2022-11-15T03:11:37;13.40;99.90
35635;DHT22;21757;43.610;1.440;2022-11-15T03:14:25;13.40;99.90
35635;DHT22;21757;43.610;1.440;2022-11-15T03:17:46;13.40;99.90
35635;DHT22;21757;43.610;1.440;2022-11-15T03:19:54;13.40;99.90
35635;DHT22;21757;43.610;1.440;2022-11-15T03:22:23;13.40;99.90
35635;DHT22;21757;43.610;1.440;2022-11-15T03:24:54;13.40;99.90
35635;DHT22;21757;43.610;1.440;2022-11-15T03:27:24;13.40;99.90
35635;DHT22;21757;43.610;1.440;2022-11-15T03:29:56;13.40;99.90
35635;DHT22;21757;43.610;1.440;2022-11-15T03:32:28;13.40;99.90
35635;DHT22;21757;43.610;1.440;2022-11-15T03:38:21;13.50;99.90
35635;DHT22;21757;43.610;1.440;2022-11-15T03:40:26;13.50;99.90
35635;DHT22;21757;43.610;1.440;2022-11-15T03:43:05;13.50;99.90
35635;DHT22;21757;43.610;1.440;2022-11-15T03:45:38;13.60;99.90
35635;DHT22;21757;43.610;1.440;2022-11-15T03:48:16;13.70;99.90
35635;DHT22;21757;43.610;1.440;2022-11-15T03:50:45;13.70;99.90
35635;DHT22;21757;43.610;1.440;2022-11-15T03:53:12;13.70;99.90
35635;DHT22;21757;43.610;1.440;2022-11-15T03:55:39;13.70;99.90
35635;DHT22;21757;43.610;1.440;2022-11-15T03:58:05;13.60;99.90
35635;DHT22;21757;43.610;1.440;2022-11-15T04:00:31;13.70;99.90
35635;DHT22;21757;43.610;1.440;2022-11-15T04:02:56;13.70;99.90
35635;DHT22;21757;43.610;1.440;2022-11-15T04:05:22;13.70;99.90
35635;DHT22;21757;43.610;1.440;2022-11-15T04:07:48;13.70;99.90
35635;DHT22;21757;43.610;1.440;2022-11-15T04:10:14;13.60;99.90
35635;DHT22;21757;43.610;1.440;2022-11-15T04:12:42;13.70;99.90
35635;DHT22;21757;43.610;1.440;2022-11-15T04:15:09;13.70;99.90
35635;DHT22;21757;43.610;1.440;2022-11-15T04:17:40;13.60;99.90
35635;DHT22;21757;43.610;1.440;2022-11-15T04:20:19;13.60;99.90
35635;DHT22;21757;43.610;1.440;2022-11-15T04:23:23;13.60;99.90
35635;DHT22;21757;43.610;1.440;2022-11-15T04:26:11;13.50;99.90
35635;DHT22;21757;43.610;1.440;2022-11-15T04:28:38;13.50;99.90
35635;DHT22;21757;43.610;1.440;2022-11-15T04:31:24;13.60;99.90
35635;DHT22;21757;43.610;1.440;2022-11-15T04:33:49;13.50;99.90
35635;DHT22;21757;43.610;1.440;2022-11-15T04:36:15;13.50;99.90
35635;DHT22;21757;43.610;1.440;2022-11-15T04:38:59;13.50;99.90
35635;DHT22;21757;43.610;1.440;2022-11-15T04:41:25;13.60;99.90
35635;DHT22;21757;43.610;1.440;2022-11-15T04:43:51;13.60;99.90
35635;DHT22;21757;43.610;1.440;2022-11-15T04:46:17;13.60;99.90
35635;DHT22;21757;43.610;1.440;2022-11-15T04:48:42;13.60;99.90
35635;DHT22;21757;43.610;1.440;2022-11-15T04:51:08;13.70;99.90
35635;DHT22;21757;43.610;1.440;2022-11-15T04:53:34;13.70;99.90
35635;DHT22;21757;43.610;1.440;2022-11-15T04:55:59;13.70;99.90
35635;DHT22;21757;43.610;1.440;2022-11-15T04:58:25;13.80;99.90
35635;DHT22;21757;43.610;1.440;2022-11-15T05:00:51;13.80;99.90
35635;DHT22;21757;43.610;1.440;2022-11-15T05:03:18;13.90;99.90
35635;DHT22;21757;43.610;1.440;2022-11-15T05:06:02;13.90;99.90
35635;DHT22;21757;43.610;1.440;2022-11-15T05:08:28;13.90;99.90
35635;DHT22;21757;43.610;1.440;2022-11-15T05:10:53;14.00;99.90
35635;DHT22;21757;43.610;1.440;2022-11-15T05:13:20;14.00;99.90
35635;DHT22;21757;43.610;1.440;2022-11-15T05:15:46;14.00;99.90
35635;DHT22;21757;43.610;1.440;2022-11-15T05:18:12;14.10;99.90
35635;DHT22;21757;43.610;1.440;2022-11-15T05:20:38;14.20;99.90
35635;DHT22;21757;43.610;1.440;2022-11-15T05:23:03;14.10;99.90
35635;DHT22;21757;43.610;1.440;2022-11-15T05:25:29;14.20;99.90
35635;DHT22;21757;43.610;1.440;2022-11-15T05:27:55;14.20;99.90
35635;DHT22;21757;43.610;1.440;2022-11-15T05:30:21;14.20;99.90
35635;DHT22;21757;43.610;1.440;2022-11-15T05:32:47;14.20;99.90
35635;DHT22;21757;43.610;1.440;2022-11-15T05:35:33;14.20;99.90
35635;DHT22;21757;43.610;1.440;2022-11-15T05:38:00;14.20;99.90
35635;DHT22;21757;43.610;1.440;2022-11-15T05:40:26;14.20;99.90
35635;DHT22;21757;43.610;1.440;2022-11-15T05:42:52;14.20;99.90
35635;DHT22;21757;43.610;1.440;2022-11-15T05:45:18;14.20;99.90
35635;DHT22;21757;43.610;1.440;2022-11-15T05:47:45;14.30;99.90
35635;DHT22;21757;43.610;1.440;2022-11-15T05:50:14;14.30;99.90
35635;DHT22;21757;43.610;1.440;2022-11-15T05:52:41;14.30;99.90
35635;DHT22;21757;43.610;1.440;2022-11-15T05:55:08;14.30;99.90
35635;DHT22;21757;43.610;1.440;2022-11-15T05:57:34;14.30;99.90
35635;DHT22;21757;43.610;1.440;2022-11-15T06:00:00;14.30;99.90
35635;DHT22;21757;43.610;1.440;2022-11-15T06:02:26;14.40;99.90
35635;DHT22;21757;43.610;1.440;2022-11-15T06:04:52;14.40;99.90
35635;DHT22;21757;43.610;1.440;2022-11-15T06:07:17;14.40;99.90
35635;DHT22;21757;43.610;1.440;2022-11-15T06:09:43;14.40;99.90
35635;DHT22;21757;43.610;1.440;2022-11-15T06:12:08;14.40;99.90
35635;DHT22;21757;43.610;1.440;2022-11-15T06:14:34;14.40;99.90
35635;DHT22;21757;43.610;1.440;2022-11-15T06:17:00;14.40;99.90
35635;DHT22;21757;43.610;1.440;2022-11-15T06:19:25;14.40;99.90
35635;DHT22;21757;43.610;1.440;2022-11-15T06:21:51;14.40;99.90
35635;DHT22;21757;43.610;1.440;2022-11-15T06:24:17;14.40;99.90
35635;DHT22;21757;43.610;1.440;2022-11-15T06:26:42;14.40;99.90
35635;DHT22;21757;43.610;1.440;2022-11-15T06:29:08;14.40;99.90
35635;DHT22;21757;43.610;1.440;2022-11-15T06:31:35;14.40;99.90
35635;DHT22;21757;43.610;1.440;2022-11-15T06:34:01;14.40;99.90
35635;DHT22;21757;43.610;1.440;2022-11-15T06:36:27;14.40;99.90
35635;DHT22;21757;43.610;1.440;2022-11-15T06:38:52;14.40;99.90
35635;DHT22;21757;43.610;1.440;2022-11-15T06:41:18;14.40;99.90
35635;DHT22;21757;43.610;1.440;2022-11-15T06:43:44;14.50;99.90
35635;DHT22;21757;43.610;1.440;2022-11-15T06:46:10;14.50;99.90
35635;DHT22;21757;43.610;1.440;2022-11-15T06:48:35;14.50;99.90
35635;DHT22;21757;43.610;1.440;2022-11-15T06:51:03;14.50;99.90
35635;DHT22;21757;43.610;1.440;2022-11-15T06:53:29;14.50;99.90
35635;DHT22;21757;43.610;1.440;2022-11-15T06:56:02;14.50;99.90
35635;DHT22;21757;43.610;1.440;2022-11-15T06:58:28;14.50;99.90
35635;DHT22;21757;43.610;1.440;2022-11-15T07:00:57;14.60;99.90
35635;DHT22;21757;43.610;1.440;2022-11-15T07:03:23;14.70;99.90
35635;DHT22;21757;43.610;1.440;2022-11-15T07:05:53;14.70;99.90
35635;DHT22;21757;43.610;1.440;2022-11-15T07:08:22;14.80;99.90
35635;DHT22;21757;43.610;1.440;2022-11-15T07:10:49;14.80;99.90
35635;DHT22;21757;43.610;1.440;2022-11-15T07:13:15;14.80;99.90
35635;DHT22;21757;43.610;1.440;2022-11-15T07:15:40;14.80;99.90
35635;DHT22;21757;43.610;1.440;2022-11-15T07:18:07;14.80;99.90
35635;DHT22;21757;43.610;1.440;2022-11-15T07:20:33;14.80;99.90
35635;DHT22;21757;43.610;1.440;2022-11-15T07:23:00;14.80;99.90
35635;DHT22;21757;43.610;1.440;2022-11-15T07:25:26;14.80;99.90
35635;DHT22;21757;43.610;1.440;2022-11-15T07:27:58;14.80;99.90
35635;DHT22;21757;43.610;1.440;2022-11-15T07:30:25;14.90;99.90
35635;DHT22;21757;43.610;1.440;2022-11-15T07:32:56;14.90;99.90
35635;DHT22;21757;43.610;1.440;2022-11-15T07:35:22;14.90;99.90
35635;DHT22;21757;43.610;1.440;2022-11-15T07:37:56;14.90;99.90
35635;DHT22;21757;43.610;1.440;2022-11-15T07:40:22;14.90;99.90
35635;DHT22;21757;43.610;1.440;2022-11-15T07:42:49;15.00;99.90
35635;DHT22;21757;43.610;1.440;2022-11-15T07:45:18;15.00;99.90
35635;DHT22;21757;43.610;1.440;2022-11-15T07:47:50;15.00;99.90
35635;DHT22;21757;43.610;1.440;2022-11-15T07:50:16;15.00;99.90
35635;DHT22;21757;43.610;1.440;2022-11-15T07:52:42;15.00;99.90
35635;DHT22;21757;43.610;1.440;2022-11-15T07:55:08;15.00;99.90
35635;DHT22;21757;43.610;1.440;2022-11-15T07:57:34;15.00;99.90
35635;DHT22;21757;43.610;1.440;2022-11-15T07:59:59;15.10;99.90
35635;DHT22;21757;43.610;1.440;2022-11-15T08:02:25;15.10;99.90
35635;DHT22;21757;43.610;1.440;2022-11-15T08:04:51;15.10;99.90
35635;DHT22;21757;43.610;1.440;2022-11-15T08:07:16;15.10;99.90
35635;DHT22;21757;43.610;1.440;2022-11-15T08:09:42;15.10;99.90
35635;DHT22;21757;43.610;1.440;2022-11-15T08:12:08;15.10;99.90
35635;DHT22;21757;43.610;1.440;2022-11-15T08:14:34;15.10;99.90
35635;DHT22;21757;43.610;1.440;2022-11-15T08:17:00;15.20;99.90
35635;DHT22;21757;43.610;1.440;2022-11-15T08:19:26;15.20;99.90
35635;DHT22;21757;43.610;1.440;2022-11-15T08:21:51;15.20;99.90
35635;DHT22;21757;43.610;1.440;2022-11-15T08:24:17;15.30;99.90
35635;DHT22;21757;43.610;1.440;2022-11-15T08:26:43;15.30;99.90
35635;DHT22;21757;43.610;1.440;2022-11-15T08:29:09;15.40;99.90
35635;DHT22;21757;43.610;1.440;2022-11-15T08:31:36;15.40;99.90
35635;DHT22;21757;43.610;1.440;2022-11-15T08:34:02;15.40;99.90
35635;DHT22;21757;43.610;1.440;2022-11-15T08:36:28;15.40;99.90
35635;DHT22;21757;43.610;1.440;2022-11-15T08:38:54;15.50;99.90
35635;DHT22;21757;43.610;1.440;2022-11-15T08:43:50;15.50;99.90
35635;DHT22;21757;43.610;1.440;2022-11-15T08:46:16;15.60;99.90
35635;DHT22;21757;43.610;1.440;2022-11-15T08:48:43;15.60;99.90
35635;DHT22;21757;43.610;1.440;2022-11-15T08:51:09;15.60;99.90
35635;DHT22;21757;43.610;1.440;2022-11-15T08:53:35;15.70;99.90
35635;DHT22;21757;43.610;1.440;2022-11-15T08:56:01;15.90;99.90
35635;DHT22;21757;43.610;1.440;2022-11-15T08:58:27;15.90;99.90
35635;DHT22;21757;43.610;1.440;2022-11-15T09:00:52;16.00;99.90
35635;DHT22;21757;43.610;1.440;2022-11-15T09:03:18;16.00;99.90
35635;DHT22;21757;43.610;1.440;2022-11-15T09:05:44;16.00;99.90
35635;DHT22;21757;43.610;1.440;2022-11-15T09:08:10;16.00;99.90
35635;DHT22;21757;43.610;1.440;2022-11-15T09:10:38;16.00;99.90
35635;DHT22;21757;43.610;1.440;2022-11-15T09:13:04;16.00;99.90
35635;DHT22;21757;43.610;1.440;2022-11-15T09:15:29;16.10;99.90
35635;DHT22;21757;43.610;1.440;2022-11-15T09:17:58;16.10;99.90
35635;DHT22;21757;43.610;1.440;2022-11-15T09:20:24;16.10;99.90
35635;DHT22;21757;43.610;1.440;2022-11-15T09:22:50;16.10;99.90
35635;DHT22;21757;43.610;1.440;2022-11-15T09:25:16;16.10;99.90
35635;DHT22;21757;43.610;1.440;2022-11-15T09:27:42;16.10;99.90
35635;DHT22;21757;43.610;1.440;2022-11-15T09:30:08;16.10;99.90
35635;DHT22;21757;43.610;1.440;2022-11-15T09:32:33;16.20;99.90
35635;DHT22;21757;43.610;1.440;2022-11-15T09:34:59;16.20;99.90
35635;DHT22;21757;43.610;1.440;2022-11-15T09:37:25;16.30;99.90
35635;DHT22;21757;43.610;1.440;2022-11-15T09:39:51;16.40;99.90
35635;DHT22;21757;43.610;1.440;2022-11-15T09:42:26;16.50;99.90
35635;DHT22;21757;43.610;1.440;2022-11-15T09:48:07;16.70;99.90
35635;DHT22;21757;43.610;1.440;2022-11-15T09:50:50;16.80;99.90
35635;DHT22;21757;43.610;1.440;2022-11-15T09:53:48;16.70;99.90
35635;DHT22;21757;43.610;1.440;2022-11-15T09:56:22;16.70;99.90
35635;DHT22;21757;43.610;1.440;2022-11-15T10:04:28;16.60;99.90
35635;DHT22;21757;43.610;1.440;2022-11-15T10:07:20;16.60;99.90
35635;DHT22;21757;43.610;1.440;2022-11-15T10:10:15;16.80;99.90
35635;DHT22;21757;43.610;1.440;2022-11-15T10:12:47;16.80;99.90
35635;DHT22;21757;43.610;1.440;2022-11-15T10:15:15;16.90;99.90
35635;DHT22;21757;43.610;1.440;2022-11-15T10:20:27;17.10;99.90
35635;DHT22;21757;43.610;1.440;2022-11-15T10:23:01;17.20;99.90
35635;DHT22;21757;43.610;1.440;2022-11-15T10:25:31;17.30;99.90
35635;DHT22;21757;43.610;1.440;2022-11-15T10:28:35;17.40;99.90
35635;DHT22;21757;43.610;1.440;2022-11-15T10:31:02;17.60;99.90
35635;DHT22;21757;43.610;1.440;2022-11-15T10:33:31;17.80;99.90
35635;DHT22;21757;43.610;1.440;2022-11-15T10:41:18;18.00;99.90
35635;DHT22;21757;43.610;1.440;2022-11-15T10:43:46;18.10;99.90
35635;DHT22;21757;43.610;1.440;2022-11-15T10:46:26;17.90;99.90
35635;DHT22;21757;43.610;1.440;2022-11-15T10:48:52;18.00;99.90
35635;DHT22;21757;43.610;1.440;2022-11-15T10:51:24;18.10;99.90
35635;DHT22;21757;43.610;1.440;2022-11-15T10:53:56;18.10;99.90
35635;DHT22;21757;43.610;1.440;2022-11-15T10:56:23;18.10;99.90
35635;DHT22;21757;43.610;1.440;2022-11-15T10:58:55;18.10;99.90
35635;DHT22;21757;43.610;1.440;2022-11-15T11:01:30;18.10;99.90
35635;DHT22;21757;43.610;1.440;2022-11-15T11:04:07;18.00;99.90
35635;DHT22;21757;43.610;1.440;2022-11-15T11:09:35;18.20;99.90
35635;DHT22;21757;43.610;1.440;2022-11-15T11:12:05;18.20;99.90
35635;DHT22;21757;43.610;1.440;2022-11-15T11:14:37;18.20;99.90
35635;DHT22;21757;43.610;1.440;2022-11-15T11:20:20;18.10;99.90
35635;DHT22;21757;43.610;1.440;2022-11-15T11:42:47;18.50;99.90
35635;DHT22;21757;43.610;1.440;2022-11-15T11:48:02;18.80;99.90
35635;DHT22;21757;43.610;1.440;2022-11-15T11:50:36;18.80;99.90
35635;DHT22;21757;43.610;1.440;2022-11-15T11:53:26;18.70;99.90
35635;DHT22;21757;43.610;1.440;2022-11-15T11:56:03;18.80;99.90
35635;DHT22;21757;43.610;1.440;2022-11-15T11:58:33;18.80;99.90
35635;DHT22;21757;43.610;1.440;2022-11-15T12:01:28;18.80;99.90
35635;DHT22;21757;43.610;1.440;2022-11-15T12:04:04;18.60;99.90
35635;DHT22;21757;43.610;1.440;2022-11-15T12:09:50;18.60;99.90
35635;DHT22;21757;43.610;1.440;2022-11-15T12:12:52;18.70;99.90
35635;DHT22;21757;43.610;1.440;2022-11-15T12:15:31;18.80;99.90
35635;DHT22;21757;43.610;1.440;2022-11-15T12:18:00;18.60;99.90
35635;DHT22;21757;43.610;1.440;2022-11-15T12:20:34;18.50;99.90
35635;DHT22;21757;43.610;1.440;2022-11-15T12:23:15;18.70;99.90
35635;DHT22;21757;43.610;1.440;2022-11-15T12:26:14;18.80;99.90
35635;DHT22;21757;43.610;1.440;2022-11-15T12:28:45;18.90;99.90
35635;DHT22;21757;43.610;1.440;2022-11-15T12:31:47;18.80;99.90
35635;DHT22;21757;43.610;1.440;2022-11-15T12:36:54;18.90;99.90
35635;DHT22;21757;43.610;1.440;2022-11-15T12:39:20;19.00;99.90
35635;DHT22;21757;43.610;1.440;2022-11-15T12:47:22;18.90;99.90
35635;DHT22;21757;43.610;1.440;2022-11-15T12:49:48;18.90;99.90
35635;DHT22;21757;43.610;1.440;2022-11-15T12:52:15;18.80;99.90
35635;DHT22;21757;43.610;1.440;2022-11-15T12:59:56;18.90;99.90
35635;DHT22;21757;43.610;1.440;2022-11-15T13:04:51;18.80;99.90
35635;DHT22;21757;43.610;1.440;2022-11-15T13:13:08;19.10;99.90
35635;DHT22;21757;43.610;1.440;2022-11-15T13:15:45;19.00;99.90
35635;DHT22;21757;43.610;1.440;2022-11-15T13:18:34;19.00;99.90
35635;DHT22;21757;43.610;1.440;2022-11-15T13:21:01;18.90;99.90
35635;DHT22;21757;43.610;1.440;2022-11-15T13:23:52;18.90;99.90
35635;DHT22;21757;43.610;1.440;2022-11-15T13:26:18;19.00;99.90
35635;DHT22;21757;43.610;1.440;2022-11-15T13:28:50;19.00;99.90
35635;DHT22;21757;43.610;1.440;2022-11-15T13:33:50;18.90;99.90
35635;DHT22;21757;43.610;1.440;2022-11-15T13:36:22;18.80;99.90
35635;DHT22;21757;43.610;1.440;2022-11-15T13:41:35;18.80;99.90
35635;DHT22;21757;43.610;1.440;2022-11-15T13:44:03;18.70;99.90
35635;DHT22;21757;43.610;1.440;2022-11-15T13:46:33;18.80;99.90
35635;DHT22;21757;43.610;1.440;2022-11-15T13:49:04;18.80;99.90
35635;DHT22;21757;43.610;1.440;2022-11-15T13:51:49;18.70;99.90
35635;DHT22;21757;43.610;1.440;2022-11-15T13:57:03;18.60;99.90
35635;DHT22;21757;43.610;1.440;2022-11-15T14:00:06;18.60;99.90
35635;DHT22;21757;43.610;1.440;2022-11-15T14:02:47;18.50;99.90
35635;DHT22;21757;43.610;1.440;2022-11-15T14:05:18;18.40;99.90
35635;DHT22;21757;43.610;1.440;2022-11-15T14:10:36;18.40;99.90
35635;DHT22;21757;43.610;1.440;2022-11-15T14:13:04;18.30;99.90
35635;DHT22;21757;43.610;1.440;2022-11-15T14:17:58;18.20;99.90
35635;DHT22;21757;43.610;1.440;2022-11-15T14:22:57;18.30;99.90
35635;DHT22;21757;43.610;1.440;2022-11-15T14:25:31;18.30;99.90
35635;DHT22;21757;43.610;1.440;2022-11-15T14:30:34;18.40;99.90
35635;DHT22;21757;43.610;1.440;2022-11-15T14:33:00;18.30;99.90
35635;DHT22;21757;43.610;1.440;2022-11-15T14:35:26;18.40;99.90
35635;DHT22;21757;43.610;1.440;2022-11-15T14:37:52;18.30;99.90
35635;DHT22;21757;43.610;1.440;2022-11-15T14:40:21;18.30;99.90
35635;DHT22;21757;43.610;1.440;2022-11-15T14:42:49;18.10;99.90
35635;DHT22;21757;43.610;1.440;2022-11-15T14:45:18;18.20;99.90
35635;DHT22;21757;43.610;1.440;2022-11-15T14:47:44;18.20;99.90
35635;DHT22;21757;43.610;1.440;2022-11-15T14:50:15;18.10;99.90
35635;DHT22;21757;43.610;1.440;2022-11-15T14:52:41;18.00;99.90
35635;DHT22;21757;43.610;1.440;2022-11-15T14:55:27;18.00;99.90
35635;DHT22;21757;43.610;1.440;2022-11-15T14:57:57;17.90;99.90
35635;DHT22;21757;43.610;1.440;2022-11-15T15:00:23;17.80;99.90
35635;DHT22;21757;43.610;1.440;2022-11-15T15:02:51;17.70;99.90
35635;DHT22;21757;43.610;1.440;2022-11-15T15:05:20;17.70;99.90
35635;DHT22;21757;43.610;1.440;2022-11-15T15:07:46;17.60;99.90
35635;DHT22;21757;43.610;1.440;2022-11-15T15:10:13;17.80;99.90
35635;DHT22;21757;43.610;1.440;2022-11-15T15:12:40;17.80;99.90
35635;DHT22;21757;43.610;1.440;2022-11-15T15:15:09;17.70;99.90
35635;DHT22;21757;43.610;1.440;2022-11-15T15:17:38;17.70;99.90
35635;DHT22;21757;43.610;1.440;2022-11-15T15:20:03;17.60;99.90
35635;DHT22;21757;43.610;1.440;2022-11-15T15:22:30;17.60;99.90
35635;DHT22;21757;43.610;1.440;2022-11-15T15:24:55;17.50;99.90
35635;DHT22;21757;43.610;1.440;2022-11-15T15:27:21;17.50;99.90
35635;DHT22;21757;43.610;1.440;2022-11-15T15:29:47;17.50;99.90
35635;DHT22;21757;43.610;1.440;2022-11-15T15:32:12;17.50;99.90
35635;DHT22;21757;43.610;1.440;2022-11-15T15:34:38;17.50;99.90
35635;DHT22;21757;43.610;1.440;2022-11-15T15:39:34;17.60;99.90
35635;DHT22;21757;43.610;1.440;2022-11-15T15:41:59;17.50;99.90
35635;DHT22;21757;43.610;1.440;2022-11-15T15:44:25;17.50;99.90
35635;DHT22;21757;43.610;1.440;2022-11-15T15:46:51;17.40;99.90
35635;DHT22;21757;43.610;1.440;2022-11-15T15:49:16;17.40;99.90
35635;DHT22;21757;43.610;1.440;2022-11-15T15:51:42;17.40;99.90
35635;DHT22;21757;43.610;1.440;2022-11-15T15:54:09;17.40;99.90
35635;DHT22;21757;43.610;1.440;2022-11-15T15:56:34;17.40;99.90
35635;DHT22;21757;43.610;1.440;2022-11-15T15:59:00;17.40;99.90
35635;DHT22;21757;43.610;1.440;2022-11-15T16:01:26;17.30;99.90
35635;DHT22;21757;43.610;1.440;2022-11-15T16:03:51;17.30;99.90
35635;DHT22;21757;43.610;1.440;2022-11-15T16:09:00;17.20;99.90
35635;DHT22;21757;43.610;1.440;2022-11-15T16:11:26;17.20;99.90
35635;DHT22;21757;43.610;1.440;2022-11-15T16:13:52;17.20;99.90
35635;DHT22;21757;43.610;1.440;2022-11-15T16:16:20;17.20;99.90
35635;DHT22;21757;43.610;1.440;2022-11-15T16:18:46;17.20;99.90
35635;DHT22;21757;43.610;1.440;2022-11-15T16:21:12;17.20;99.90
35635;DHT22;21757;43.610;1.440;2022-11-15T16:23:38;17.10;99.90
35635;DHT22;21757;43.610;1.440;2022-11-15T16:26:23;17.10;99.90
35635;DHT22;21757;43.610;1.440;2022-11-15T16:28:50;17.00;99.90
35635;DHT22;21757;43.610;1.440;2022-11-15T16:31:16;17.00;99.90
35635;DHT22;21757;43.610;1.440;2022-11-15T16:33:44;16.90;99.90
35635;DHT22;21757;43.610;1.440;2022-11-15T16:36:26;16.90;99.90
35635;DHT22;21757;43.610;1.440;2022-11-15T16:38:52;16.80;99.90
35635;DHT22;21757;43.610;1.440;2022-11-15T16:41:18;16.70;99.90
35635;DHT22;21757;43.610;1.440;2022-11-15T16:43:45;16.50;99.90
35635;DHT22;21757;43.610;1.440;2022-11-15T16:46:18;16.50;99.90
35635;DHT22;21757;43.610;1.440;2022-11-15T16:48:43;16.40;99.90
35635;DHT22;21757;43.610;1.440;2022-11-15T16:51:09;16.40;99.90
35635;DHT22;21757;43.610;1.440;2022-11-15T16:53:35;16.40;99.90
35635;DHT22;21757;43.610;1.440;2022-11-15T16:56:01;16.40;99.90
35635;DHT22;21757;43.610;1.440;2022-11-15T16:58:27;16.40;99.90
35635;DHT22;21757;43.610;1.440;2022-11-15T17:00:54;16.40;99.90
35635;DHT22;21757;43.610;1.440;2022-11-15T17:03:21;16.50;99.90
35635;DHT22;21757;43.610;1.440;2022-11-15T17:05:47;16.50;99.90
35635;DHT22;21757;43.610;1.440;2022-11-15T17:08:13;16.50;99.90
35635;DHT22;21757;43.610;1.440;2022-11-15T17:10:39;16.50;99.90
35635;DHT22;21757;43.610;1.440;2022-11-15T17:13:12;16.50;99.90
35635;DHT22;21757;43.610;1.440;2022-11-15T17:15:38;16.50;99.90
35635;DHT22;21757;43.610;1.440;2022-11-15T17:18:04;16.50;99.90
35635;DHT22;21757;43.610;1.440;2022-11-15T17:20:32;16.50;99.90
35635;DHT22;21757;43.610;1.440;2022-11-15T17:22:58;16.60;99.90
35635;DHT22;21757;43.610;1.440;2022-11-15T17:25:23;16.50;99.90
35635;DHT22;21757;43.610;1.440;2022-11-15T17:27:49;16.50;99.90
35635;DHT22;21757;43.610;1.440;2022-11-15T17:30:15;16.30;99.90
35635;DHT22;21757;43.610;1.440;2022-11-15T17:32:42;16.30;99.90
35635;DHT22;21757;43.610;1.440;2022-11-15T17:35:08;16.20;99.90
35635;DHT22;21757;43.610;1.440;2022-11-15T17:37:35;16.10;99.90
35635;DHT22;21757;43.610;1.440;2022-11-15T17:40:01;16.10;99.90
35635;DHT22;21757;43.610;1.440;2022-11-15T17:42:28;16.00;99.90